createdAt,value
2023-01-25T00:00:16.149Z,15.20
2023-01-25T00:02:45.123Z,14.45
2023-01-25T00:05:17.108Z,14.70
2023-01-25T00:07:46.768Z,15.50
2023-01-25T00:10:15.491Z,14.57
2023-01-25T00:12:46.371Z,15.07
2023-01-25T00:15:17.321Z,14.75
2023-01-25T00:17:46.289Z,15.02
2023-01-25T00:20:16.414Z,15.13
2023-01-25T00:22:48.178Z,14.73
2023-01-25T00:25:17.041Z,14.15
2023-01-25T00:27:46.281Z,14.40
2023-01-25T00:30:18.837Z,14.40
2023-01-25T00:33:03.149Z,14.98
2023-01-25T00:35:33.715Z,14.88
2023-01-25T00:38:29.467Z,15.50
2023-01-25T00:40:59.762Z,15.45
2023-01-25T00:43:29.666Z,16.10
2023-01-25T00:46:04.355Z,16.17
2023-01-25T00:48:33.258Z,15.85
2023-01-25T00:51:02.736Z,16.75
2023-01-25T00:53:32.562Z,16.60
2023-01-25T00:56:03.582Z,16.95
2023-01-25T00:58:32.384Z,16.70
2023-01-25T01:01:04.221Z,17.10
2023-01-25T01:03:32.888Z,16.45
2023-01-25T01:06:06.240Z,16.13
2023-01-25T01:08:40.930Z,16.35
2023-01-25T01:11:13.060Z,16.77
2023-01-25T01:13:42.291Z,17.50
2023-01-25T01:16:14.335Z,16.40
2023-01-25T01:18:46.180Z,16.17
2023-01-25T01:21:16.421Z,16.10
2023-01-25T01:23:47.735Z,16.77
2023-01-25T01:26:19.587Z,16.83
2023-01-25T01:28:50.047Z,17.88
2023-01-25T01:31:23.516Z,17.40
2023-01-25T01:34:04.501Z,17.33
2023-01-25T01:36:33.593Z,18.27
2023-01-25T01:39:05.934Z,17.40
2023-01-25T01:41:37.233Z,17.60
2023-01-25T01:44:07.824Z,17.17
2023-01-25T01:46:40.288Z,17.83
2023-01-25T01:49:21.785Z,17.58
2023-01-25T01:51:58.904Z,18.48
2023-01-25T01:54:39.023Z,17.92
2023-01-25T01:57:16.695Z,18.00
2023-01-25T01:59:52.530Z,17.48
2023-01-25T02:02:22.564Z,18.77
2023-01-25T02:05:00.344Z,17.92
2023-01-25T02:07:35.371Z,17.35
2023-01-25T02:10:10.729Z,18.67
2023-01-25T02:12:40.702Z,18.13
2023-01-25T02:15:11.716Z,17.23
2023-01-25T02:17:44.163Z,18.10
2023-01-25T02:20:30.520Z,17.70
2023-01-25T02:23:10.140Z,17.77
2023-01-25T02:25:43.310Z,17.17
2023-01-25T02:28:20.793Z,16.80
2023-01-25T02:30:55.442Z,17.77
2023-01-25T02:33:27.979Z,16.20
2023-01-25T02:36:15.470Z,16.45
2023-01-25T02:38:54.525Z,17.17
2023-01-25T02:41:35.104Z,17.23
2023-01-25T02:44:07.804Z,16.42
2023-01-25T02:46:40.058Z,17.13
2023-01-25T02:49:10.892Z,17.33
2023-01-25T02:51:43.171Z,17.58
2023-01-25T02:54:17.447Z,16.63
2023-01-25T02:56:49.103Z,17.42
2023-01-25T02:59:20.261Z,16.42
2023-01-25T03:01:52.825Z,16.70
2023-01-25T03:04:22.388Z,16.42
2023-01-25T03:06:51.788Z,16.70
2023-01-25T03:09:21.224Z,16.63
2023-01-25T03:11:53.336Z,16.77
2023-01-25T03:14:26.756Z,17.42
2023-01-25T03:16:55.014Z,16.42
2023-01-25T03:19:26.310Z,17.15
2023-01-25T03:21:55.281Z,16.70
2023-01-25T03:24:25.965Z,16.00
2023-01-25T03:27:17.684Z,16.40
2023-01-25T03:29:50.139Z,16.90
2023-01-25T03:32:23.952Z,16.73
2023-01-25T03:34:52.785Z,17.27
2023-01-25T03:37:21.948Z,16.67
2023-01-25T03:39:54.016Z,17.08
2023-01-25T03:42:25.340Z,16.87
2023-01-25T03:44:59.926Z,17.45
2023-01-25T03:47:30.743Z,16.63
2023-01-25T03:49:59.774Z,16.63
2023-01-25T03:52:34.299Z,17.63
2023-01-25T03:55:04.123Z,16.93
2023-01-25T03:57:37.419Z,17.80
2023-01-25T04:00:10.719Z,16.75
2023-01-25T04:02:50.702Z,17.33
2023-01-25T04:05:21.096Z,16.97
2023-01-25T04:07:49.592Z,16.98
2023-01-25T04:10:23.915Z,17.90
2023-01-25T04:12:53.632Z,18.58
2023-01-25T04:15:22.989Z,17.55
2023-01-25T04:17:51.852Z,18.30
2023-01-25T04:20:25.196Z,18.02
2023-01-25T04:22:55.198Z,17.90
2023-01-25T04:25:28.964Z,17.13
2023-01-25T04:28:01.162Z,17.83
2023-01-25T04:30:30.978Z,17.20
2023-01-25T04:33:08.057Z,17.40
2023-01-25T04:35:37.856Z,17.20
2023-01-25T04:38:11.296Z,17.92
2023-01-25T04:40:44.744Z,16.90
2023-01-25T04:43:18.330Z,17.30
2023-01-25T04:45:50.363Z,17.75
2023-01-25T04:48:25.236Z,16.60
2023-01-25T04:50:58.700Z,16.67
2023-01-25T04:53:28.316Z,16.73
2023-01-25T04:56:01.596Z,17.35
2023-01-25T04:58:36.204Z,16.67
2023-01-25T05:01:06.045Z,16.73
2023-01-25T05:03:38.167Z,16.48
2023-01-25T05:06:12.230Z,16.53
2023-01-25T05:08:43.331Z,17.65
2023-01-25T05:11:12.238Z,16.92
2023-01-25T05:13:56.024Z,18.42
2023-01-25T05:16:33.971Z,17.25
2023-01-25T05:19:03.247Z,16.10
2023-01-25T05:22:01.029Z,15.32
2023-01-25T05:24:36.606Z,14.80
2023-01-25T05:27:18.540Z,15.10
2023-01-25T05:30:01.276Z,15.15
2023-01-25T05:32:51.768Z,15.13
2023-01-25T05:35:20.732Z,15.80
2023-01-25T05:37:52.050Z,16.00
2023-01-25T05:40:26.540Z,16.42
2023-01-25T05:42:58.730Z,16.73
2023-01-25T05:45:31.345Z,16.15
2023-01-25T05:48:00.911Z,16.30
2023-01-25T05:50:30.057Z,15.57
2023-01-25T05:53:05.808Z,15.77
2023-01-25T05:55:37.878Z,16.00
2023-01-25T05:58:10.826Z,15.30
2023-01-25T06:00:43.072Z,15.65
2023-01-25T06:03:17.479Z,17.03
2023-01-25T06:05:47.448Z,16.00
2023-01-25T06:08:16.530Z,15.20
2023-01-25T06:10:50.907Z,14.82
2023-01-25T06:13:20.562Z,15.07
2023-01-25T06:15:55.734Z,14.77
2023-01-25T06:18:41.500Z,15.23
2023-01-25T06:21:32.946Z,14.23
2023-01-25T06:24:01.407Z,15.35
2023-01-25T06:26:30.992Z,15.45
2023-01-25T06:29:01.061Z,14.70
2023-01-25T06:31:33.227Z,14.77
2023-01-25T06:34:05.004Z,14.60
2023-01-25T06:36:34.537Z,13.52
2023-01-25T06:39:03.316Z,14.05
2023-01-25T06:41:33.005Z,13.77
2023-01-25T06:44:03.045Z,13.50
2023-01-25T06:46:34.575Z,13.00
2023-01-25T06:49:03.297Z,12.75
2023-01-25T06:51:32.338Z,13.18
2023-01-25T06:54:05.353Z,13.80
2023-01-25T06:56:42.034Z,14.10
2023-01-25T06:59:10.908Z,13.43
2023-01-25T07:01:43.730Z,14.25
2023-01-25T07:04:14.508Z,14.75
2023-01-25T07:06:47.307Z,13.45
2023-01-25T07:09:18.424Z,12.88
2023-01-25T07:11:47.633Z,12.43
2023-01-25T07:14:16.810Z,12.70
2023-01-25T07:16:47.938Z,13.10
2023-01-25T07:19:17.893Z,12.13
2023-01-25T07:21:49.213Z,13.70
2023-01-25T07:24:21.332Z,12.63
2023-01-25T07:26:54.333Z,13.05
2023-01-25T07:29:25.467Z,13.25
2023-01-25T07:31:56.565Z,13.13
2023-01-25T07:34:28.988Z,13.63
2023-01-25T07:36:57.558Z,14.23
2023-01-25T07:39:30.627Z,14.27
2023-01-25T07:41:59.375Z,14.15
2023-01-25T07:44:35.771Z,13.95
2023-01-25T07:47:16.622Z,14.15
2023-01-25T07:49:45.292Z,13.98
2023-01-25T07:52:15.856Z,12.97
2023-01-25T07:54:48.381Z,12.50
2023-01-25T07:57:18.055Z,13.50
2023-01-25T07:59:47.413Z,12.85
2023-01-25T08:02:19.287Z,13.80
2023-01-25T08:04:48.211Z,12.82
2023-01-25T08:07:17.621Z,12.68
2023-01-25T08:09:46.344Z,12.55
2023-01-25T08:12:17.905Z,12.48
2023-01-25T08:14:46.365Z,12.52
2023-01-25T08:17:14.883Z,13.23
2023-01-25T08:19:46.091Z,11.98
2023-01-25T08:22:15.665Z,12.30
2023-01-25T08:24:43.945Z,13.70
2023-01-25T08:27:13.500Z,13.10
2023-01-25T08:29:42.700Z,13.30
2023-01-25T08:32:12.084Z,13.23
2023-01-25T08:34:41.417Z,13.07
2023-01-25T08:37:11.473Z,12.00
2023-01-25T08:39:40.214Z,12.85
2023-01-25T08:42:09.708Z,12.63
2023-01-25T08:44:38.615Z,11.85
2023-01-25T08:47:07.062Z,11.48
2023-01-25T08:49:36.422Z,12.00
2023-01-25T08:52:05.602Z,12.03
2023-01-25T08:54:35.575Z,11.90
2023-01-25T08:57:06.313Z,11.82
2023-01-25T08:59:38.207Z,11.57
2023-01-25T09:02:08.105Z,12.15
2023-01-25T09:04:37.420Z,12.13
2023-01-25T09:07:08.481Z,12.00
2023-01-25T09:09:39.515Z,12.00
2023-01-25T09:12:10.783Z,11.60
2023-01-25T09:14:45.151Z,12.13
2023-01-25T09:17:14.135Z,11.90
2023-01-25T09:19:47.860Z,11.50
2023-01-25T09:22:16.229Z,11.82
2023-01-25T09:24:56.584Z,11.32
2023-01-25T09:27:26.048Z,11.93
2023-01-25T09:30:02.125Z,11.27
2023-01-25T09:32:33.679Z,10.90
2023-01-25T09:35:04.784Z,10.67
2023-01-25T09:37:33.456Z,10.98
2023-01-25T09:40:05.126Z,10.70
2023-01-25T09:43:03.393Z,10.68
2023-01-25T09:45:37.328Z,10.68
2023-01-25T09:48:25.630Z,10.25
2023-01-25T09:51:22.365Z,10.65
2023-01-25T09:53:58.655Z,10.05
2023-01-25T09:56:38.186Z,9.73
2023-01-25T09:59:17.463Z,10.60
2023-01-25T10:01:57.980Z,10.43
2023-01-25T10:04:36.171Z,10.80
2023-01-25T10:07:20.949Z,9.98
2023-01-25T10:09:58.023Z,9.00
2023-01-25T10:12:36.124Z,9.43
2023-01-25T10:15:20.192Z,8.77
2023-01-25T10:18:03.733Z,9.40
2023-01-25T10:20:42.901Z,9.90
2023-01-25T10:23:51.305Z,10.10
2023-01-25T10:26:30.202Z,9.80
2023-01-25T10:29:13.089Z,9.63
2023-01-25T10:31:53.647Z,9.77
2023-01-25T10:34:26.035Z,9.70
2023-01-25T10:36:57.756Z,9.65
2023-01-25T10:39:28.754Z,9.02
2023-01-25T10:42:01.092Z,9.35
2023-01-25T10:44:33.479Z,8.65
2023-01-25T10:47:14.195Z,8.95
2023-01-25T10:49:47.943Z,10.18
2023-01-25T10:52:25.351Z,9.75
2023-01-25T10:55:16.764Z,8.50
2023-01-25T10:57:49.997Z,8.98
2023-01-25T11:00:30.685Z,8.63
2023-01-25T11:03:00.767Z,8.50
2023-01-25T11:05:35.781Z,8.93
2023-01-25T11:08:26.278Z,9.23
2023-01-25T11:10:57.570Z,9.02
2023-01-25T11:13:31.686Z,10.02
2023-01-25T11:16:30.829Z,10.52
2023-01-25T11:19:03.751Z,9.93
2023-01-25T11:21:37.320Z,9.57
2023-01-25T11:24:21.225Z,9.43
2023-01-25T11:26:50.772Z,9.95
2023-01-25T11:29:31.336Z,8.95
2023-01-25T11:32:05.603Z,10.23
2023-01-25T11:34:39.384Z,8.90
2023-01-25T11:37:41.817Z,9.18
2023-01-25T11:40:23.752Z,9.00
2023-01-25T11:43:15.069Z,8.82
2023-01-25T11:46:22.390Z,9.68
2023-01-25T11:49:26.381Z,9.85
2023-01-25T11:52:10.526Z,9.68
2023-01-25T11:55:00.952Z,9.15
2023-01-25T11:58:00.043Z,10.40
2023-01-25T12:00:49.986Z,9.80
2023-01-25T12:04:10.333Z,9.10
2023-01-25T12:07:03.489Z,8.73
2023-01-25T12:10:02.161Z,10.00
2023-01-25T12:12:47.024Z,10.00
2023-01-25T12:15:43.700Z,8.48
2023-01-25T12:18:56.445Z,8.80
2023-01-25T12:21:53.151Z,9.20
2023-01-25T12:24:49.356Z,9.40
2023-01-25T12:27:33.423Z,8.52
2023-01-25T12:30:19.205Z,8.77
2023-01-25T12:33:09.029Z,8.25
2023-01-25T12:35:51.333Z,8.38
2023-01-25T12:38:35.355Z,8.05
2023-01-25T12:41:21.589Z,8.85
2023-01-25T12:44:05.409Z,8.73
2023-01-25T12:46:43.718Z,8.90
2023-01-25T12:49:25.187Z,8.63
2023-01-25T12:52:00.867Z,8.60
2023-01-25T12:54:39.560Z,8.23
2023-01-25T12:57:30.455Z,8.50
2023-01-25T13:00:11.444Z,8.18
2023-01-25T13:03:16.637Z,8.57
2023-01-25T13:05:55.187Z,8.10
2023-01-25T13:08:41.811Z,8.10
2023-01-25T13:11:23.464Z,8.50
2023-01-25T13:13:59.967Z,8.35
2023-01-25T13:16:46.981Z,8.10
2023-01-25T13:19:25.117Z,8.30
2023-01-25T13:21:58.634Z,8.82
2023-01-25T13:24:30.980Z,8.30
2023-01-25T13:27:07.974Z,9.07
2023-01-25T13:30:07.382Z,9.63
2023-01-25T13:33:02.325Z,9.40
2023-01-25T13:35:47.283Z,8.77
2023-01-25T13:38:36.397Z,8.30
2023-01-25T13:41:12.491Z,8.82
2023-01-25T13:44:15.598Z,7.97
2023-01-25T13:46:45.486Z,8.75
2023-01-25T13:49:30.484Z,8.57
2023-01-25T13:52:03.077Z,9.60
2023-01-25T13:54:33.983Z,8.38
2023-01-25T13:57:09.531Z,8.52
2023-01-25T13:59:54.255Z,9.20
2023-01-25T14:02:31.267Z,8.90
2023-01-25T14:05:04.503Z,8.13
2023-01-25T14:07:39.962Z,8.07
2023-01-25T14:10:24.483Z,10.18
2023-01-25T14:13:02.128Z,8.43
2023-01-25T14:15:34.383Z,9.10
2023-01-25T14:18:19.454Z,8.00
2023-01-25T14:20:55.020Z,8.23
2023-01-25T14:23:34.544Z,8.27
2023-01-25T14:26:18.592Z,8.30
2023-01-25T14:29:01.066Z,11.73
2023-01-25T14:31:42.166Z,9.45
2023-01-25T14:34:21.959Z,8.77
2023-01-25T14:37:08.686Z,8.55
2023-01-25T14:39:40.432Z,8.30
2023-01-25T14:42:11.098Z,8.18
2023-01-25T14:44:41.623Z,8.02
2023-01-25T14:47:33.644Z,8.57
2023-01-25T14:50:38.264Z,8.48
2023-01-25T14:53:21.114Z,9.05
2023-01-25T14:55:53.546Z,8.82
2023-01-25T14:58:29.529Z,8.85
2023-01-25T15:01:02.516Z,8.50
2023-01-25T15:03:33.768Z,8.30
2023-01-25T15:06:06.352Z,8.27
2023-01-25T15:08:40.881Z,8.65
2023-01-25T15:11:39.143Z,8.88
2023-01-25T15:14:22.160Z,8.55
2023-01-25T15:16:51.319Z,9.02
2023-01-25T15:19:29.714Z,8.95
2023-01-25T15:22:01.633Z,8.63
2023-01-25T15:24:30.349Z,9.23
2023-01-25T15:26:59.039Z,8.70
2023-01-25T15:29:28.101Z,9.40
2023-01-25T15:31:57.876Z,9.98
2023-01-25T15:34:33.573Z,8.65
2023-01-25T15:37:02.178Z,8.95
2023-01-25T15:39:32.997Z,8.23
2023-01-25T15:42:01.490Z,8.77
2023-01-25T15:44:30.530Z,8.30
2023-01-25T15:46:59.842Z,8.52
2023-01-25T15:49:31.635Z,9.13
2023-01-25T15:52:00.618Z,8.80
2023-01-25T15:54:29.216Z,8.43
2023-01-25T15:57:01.263Z,8.15
2023-01-25T15:59:32.278Z,9.13
2023-01-25T16:02:00.585Z,8.98
2023-01-25T16:04:31.352Z,9.23
2023-01-25T16:07:02.623Z,8.77
2023-01-25T16:09:34.093Z,8.60
2023-01-25T16:12:03.598Z,9.88
2023-01-25T16:14:34.717Z,9.68
2023-01-25T16:17:06.223Z,9.80
2023-01-25T16:19:38.051Z,9.73
2023-01-25T16:22:06.341Z,9.70
2023-01-25T16:24:39.402Z,9.68
2023-01-25T16:27:20.205Z,8.73
2023-01-25T16:29:49.776Z,9.30
2023-01-25T16:32:19.253Z,8.73
2023-01-25T16:34:50.569Z,9.40
2023-01-25T16:37:19.763Z,9.20
2023-01-25T16:39:48.805Z,10.23
2023-01-25T16:42:17.253Z,9.13
2023-01-25T16:44:46.111Z,9.47
2023-01-25T16:47:18.268Z,9.10
2023-01-25T16:49:48.489Z,8.82
2023-01-25T16:52:16.771Z,9.68
2023-01-25T16:54:45.317Z,9.30
2023-01-25T16:57:20.595Z,9.93
2023-01-25T16:59:50.545Z,10.60
2023-01-25T17:02:21.574Z,9.98
2023-01-25T17:04:51.129Z,10.32
2023-01-25T17:07:20.415Z,10.70
2023-01-25T17:09:49.289Z,11.02
2023-01-25T17:12:18.759Z,12.17
2023-01-25T17:14:47.948Z,11.33
2023-01-25T17:17:16.815Z,10.57
2023-01-25T17:19:52.334Z,11.05
2023-01-25T17:22:23.067Z,9.85
2023-01-25T17:24:51.852Z,10.10
2023-01-25T17:27:21.888Z,10.35
2023-01-25T17:29:51.048Z,10.50
2023-01-25T17:32:19.551Z,10.23
2023-01-25T17:34:49.897Z,10.73
2023-01-25T17:37:20.266Z,10.23
2023-01-25T17:39:50.356Z,10.90
2023-01-25T17:42:18.619Z,10.77
2023-01-25T17:44:47.740Z,10.75
2023-01-25T17:47:16.934Z,11.07
2023-01-25T17:49:45.466Z,11.07
2023-01-25T17:55:07.107Z,10.05
2023-01-25T17:57:37.238Z,10.23
2023-01-25T18:00:14.299Z,11.17
2023-01-25T18:02:46.659Z,12.63
2023-01-25T18:05:15.681Z,11.77
2023-01-25T18:07:45.677Z,12.25
2023-01-25T18:10:15.855Z,12.27
2023-01-25T18:13:03.598Z,11.48
2023-01-25T18:15:33.297Z,11.85
2023-01-25T18:18:01.756Z,11.48
2023-01-25T18:20:31.562Z,10.65
2023-01-25T18:23:02.799Z,10.50
2023-01-25T18:25:37.348Z,10.00
2023-01-25T18:28:05.919Z,10.25
2023-01-25T18:30:37.897Z,11.98
2023-01-25T18:33:08.025Z,11.32
2023-01-25T18:35:37.880Z,12.18
2023-01-25T18:38:06.131Z,12.10
2023-01-25T18:40:36.804Z,11.27
2023-01-25T18:43:05.343Z,12.52
2023-01-25T18:45:36.986Z,12.73
2023-01-25T18:48:06.989Z,12.25
2023-01-25T18:50:36.583Z,12.60
2023-01-25T18:53:05.644Z,12.77
2023-01-25T18:55:35.577Z,12.05
2023-01-25T18:58:05.767Z,12.77
2023-01-25T19:00:36.202Z,16.20
2023-01-25T19:03:05.162Z,12.50
2023-01-25T19:05:33.407Z,15.18
2023-01-25T19:08:23.712Z,12.90
2023-01-25T19:11:00.033Z,12.40
2023-01-25T19:13:32.331Z,11.93
2023-01-25T19:16:03.283Z,12.13
2023-01-25T19:18:35.121Z,12.98
2023-01-25T19:21:08.434Z,15.50
2023-01-25T19:23:40.003Z,10.55
2023-01-25T19:26:16.587Z,9.38
2023-01-25T19:28:47.212Z,9.23
2023-01-25T19:31:20.727Z,9.93
2023-01-25T19:33:50.288Z,10.77
2023-01-25T19:36:19.319Z,10.55
2023-01-25T19:38:49.683Z,9.15
2023-01-25T19:41:22.972Z,8.77
2023-01-25T19:43:54.666Z,11.13
2023-01-25T19:46:25.745Z,10.18
2023-01-25T19:48:55.811Z,9.65
2023-01-25T19:51:27.756Z,9.43
2023-01-25T19:54:00.281Z,9.93
2023-01-25T19:56:32.928Z,11.95
2023-01-25T19:59:03.924Z,12.98
2023-01-25T20:01:32.946Z,14.45
2023-01-25T20:04:06.249Z,12.32
2023-01-25T20:06:35.357Z,10.67
2023-01-25T20:09:28.487Z,12.13
2023-01-25T20:12:00.616Z,12.57
2023-01-25T20:14:29.208Z,12.82
2023-01-25T20:16:57.577Z,12.07
2023-01-25T20:19:25.925Z,11.07
2023-01-25T20:21:54.208Z,11.18
2023-01-25T20:24:22.891Z,10.00
2023-01-25T20:26:52.429Z,10.45
2023-01-25T20:29:23.979Z,10.43
2023-01-25T20:31:53.108Z,10.35
2023-01-25T20:34:24.231Z,11.05
2023-01-25T20:36:52.824Z,10.63
2023-01-25T20:39:23.807Z,9.30
2023-01-25T20:41:53.703Z,10.75
2023-01-25T20:44:23.565Z,11.20
2023-01-25T20:46:54.419Z,10.48
2023-01-25T20:49:23.320Z,10.98
2023-01-25T20:51:51.511Z,9.77
2023-01-25T20:54:21.641Z,12.30
2023-01-25T20:56:50.437Z,17.85
2023-01-25T20:59:19.408Z,13.25
2023-01-25T21:01:50.322Z,16.77
2023-01-25T21:04:18.714Z,16.15
2023-01-25T21:06:47.072Z,13.73
2023-01-25T21:09:16.255Z,15.90
2023-01-25T21:11:44.559Z,10.30
2023-01-25T21:14:13.094Z,9.85
2023-01-25T21:16:41.482Z,10.15
2023-01-25T21:19:12.201Z,10.38
2023-01-25T21:21:41.219Z,11.50
2023-01-25T21:24:11.962Z,11.73
2023-01-25T21:26:40.662Z,11.13
2023-01-25T21:29:09.152Z,10.52
2023-01-25T21:31:42.423Z,10.20
2023-01-25T21:34:12.590Z,9.63
2023-01-25T21:36:41.427Z,9.57
2023-01-25T21:39:10.833Z,10.32
2023-01-25T21:41:39.478Z,14.38
2023-01-25T21:44:26.091Z,10.30
2023-01-25T21:47:23.548Z,9.73
2023-01-25T21:50:01.605Z,12.10
2023-01-25T21:52:30.207Z,11.82
2023-01-25T21:54:58.518Z,13.67
2023-01-25T21:57:26.922Z,11.77
2023-01-25T21:59:55.468Z,11.50
2023-01-25T22:02:24.471Z,10.25
2023-01-25T22:04:54.080Z,11.10
2023-01-25T22:07:23.399Z,11.30
2023-01-25T22:09:51.552Z,10.35
2023-01-25T22:12:19.810Z,11.50
2023-01-25T22:14:48.164Z,11.75
2023-01-25T22:17:18.766Z,10.87
2023-01-25T22:19:47.813Z,11.52
2023-01-25T22:22:17.543Z,10.38
2023-01-25T22:24:47.525Z,10.73
2023-01-25T22:27:38.069Z,11.98
2023-01-25T22:30:11.117Z,11.25
2023-01-25T22:32:41.241Z,11.63
2023-01-25T22:35:10.641Z,13.30
2023-01-25T22:37:40.216Z,10.30
2023-01-25T22:40:10.753Z,11.63
2023-01-25T22:42:39.439Z,11.90
2023-01-25T22:45:09.614Z,12.93
2023-01-25T22:47:37.840Z,14.07
2023-01-25T22:50:07.492Z,14.23
2023-01-25T22:52:35.981Z,13.88
2023-01-25T22:55:06.297Z,15.73
2023-01-25T22:57:34.899Z,16.60
2023-01-25T23:00:05.117Z,14.95
2023-01-25T23:02:33.625Z,15.35
2023-01-25T23:05:01.933Z,13.85
2023-01-25T23:07:30.213Z,11.93
2023-01-25T23:09:58.897Z,11.60
2023-01-25T23:12:29.622Z,14.30
2023-01-25T23:15:06.971Z,11.85
2023-01-25T23:17:52.995Z,12.63
2023-01-25T23:20:21.368Z,14.90
2023-01-25T23:22:52.076Z,15.18
2023-01-25T23:25:20.546Z,15.48
2023-01-25T23:27:51.305Z,15.18
2023-01-25T23:30:23.609Z,15.77
2023-01-25T23:32:52.065Z,15.50
2023-01-25T23:35:22.028Z,16.10
2023-01-25T23:37:50.949Z,15.73
2023-01-25T23:40:19.574Z,15.02
2023-01-25T23:42:50.427Z,15.82
2023-01-25T23:45:19.845Z,15.38
2023-01-25T23:47:48.781Z,15.75
2023-01-25T23:50:18.128Z,15.73
2023-01-25T23:52:47.319Z,15.88
2023-01-25T23:55:16.037Z,15.23
2023-01-25T23:57:44.558Z,15.70
